Time;durP1;ratioP1;P1;durP2;ratioP2;P2;SDS_P1;SDS_P2;PMS_P1;PMS_P2;Temp;Humidity;BMP_temperature;BMP_pressure;BME280_temperature;BME280_humidity;BME280_pressure;Samples;Min_cycle;Max_cycle;Signal;HPM_P1;HPM_P2
2022/07/22 00:00:05;;;;;;;8.77;6.43;;;26.60;49.20;;;;;;5147922;27;20433;-90
2022/07/22 00:02:32;;;;;;;7.53;6.80;;;26.60;48.70;;;;;;5133088;27;20496;-89
2022/07/22 00:04:59;;;;;;;14.30;8.10;;;26.50;49.30;;;;;;5128214;27;20947;-89
2022/07/22 00:07:26;;;;;;;7.93;7.13;;;26.50;49.70;;;;;;5111053;27;20461;-89
2022/07/22 00:09:53;;;;;;;9.43;7.53;;;26.50;49.60;;;;;;5130311;27;20448;-90
2022/07/22 00:12:21;;;;;;;9.73;7.70;;;26.50;49.70;;;;;;5149056;27;20477;-89
2022/07/22 00:14:48;;;;;;;7.70;6.90;;;26.50;49.80;;;;;;5130401;27;20941;-90
2022/07/22 00:17:15;;;;;;;9.80;7.83;;;26.50;50.00;;;;;;5112476;27;20448;-90
2022/07/22 00:19:42;;;;;;;9.40;7.37;;;26.40;50.40;;;;;;5109721;27;20829;-91
2022/07/22 00:22:09;;;;;;;8.03;7.07;;;26.00;50.50;;;;;;5130463;27;20908;-89
2022/07/22 00:24:36;;;;;;;8.20;7.37;;;25.90;51.10;;;;;;5126014;27;20480;-89
2022/07/22 00:27:03;;;;;;;9.60;7.33;;;25.20;52.60;;;;;;5114630;27;20446;-90
2022/07/22 00:29:31;;;;;;;9.80;7.80;;;24.80;53.60;;;;;;5129728;27;20962;-89
2022/07/22 00:31:58;;;;;;;8.80;7.60;;;25.00;53.10;;;;;;5149263;27;20477;-89
2022/07/22 00:34:25;;;;;;;8.97;6.90;;;25.30;52.30;;;;;;5107942;27;20991;-90
2022/07/22 00:41:51;;;;;;;9.67;8.60;;;25.60;51.20;;;;;;5142493;27;20424;-90
2022/07/22 00:44:18;;;;;;;9.53;7.70;;;25.60;51.40;;;;;;5110110;27;20437;-90
2022/07/22 00:46:46;;;;;;;9.87;6.53;;;25.50;51.70;;;;;;5129989;27;20995;-88
2022/07/22 00:49:13;;;;;;;7.03;6.30;;;25.60;51.50;;;;;;5112148;27;20448;-90
2022/07/22 00:51:40;;;;;;;7.40;6.70;;;25.70;51.20;;;;;;5130895;27;20467;-90
2022/07/22 00:54:08;;;;;;;10.57;6.47;;;25.80;51.20;;;;;;5127792;27;20477;-89
2022/07/22 00:56:36;;;;;;;8.40;7.00;;;25.70;50.50;;;;;;5129127;27;20792;-89
2022/07/22 01:05:41;;;;;;;7.73;6.93;;;25.60;51.40;;;;;;5107543;27;20472;-89
2022/07/22 01:08:08;;;;;;;8.57;7.03;;;25.60;51.30;;;;;;5128256;27;20758;-87
2022/07/22 01:10:36;;;;;;;9.03;7.70;;;25.60;51.40;;;;;;5126818;27;20445;-90
2022/07/22 01:13:03;;;;;;;7.93;7.13;;;25.60;51.30;;;;;;5109698;27;20469;-89
2022/07/22 01:15:30;;;;;;;7.83;7.03;;;25.60;51.30;;;;;;5100297;27;20460;-89
2022/07/22 01:17:58;;;;;;;11.63;6.80;;;25.60;51.50;;;;;;5110480;27;20449;-90
2022/07/22 01:20:26;;;;;;;8.13;6.90;;;25.60;51.40;;;;;;5107334;27;20997;-87
2022/07/22 01:22:53;;;;;;;8.13;6.93;;;25.40;51.40;;;;;;5041248;27;20461;-90
2022/07/22 01:25:20;;;;;;;8.17;7.37;;;25.30;51.80;;;;;;5125473;27;20449;-89
2022/07/22 01:27:47;;;;;;;7.03;6.33;;;25.40;51.50;;;;;;5100597;27;21034;-89
2022/07/22 01:30:15;;;;;;;8.63;7.63;;;25.40;50.80;;;;;;5109907;27;20453;-89
2022/07/22 01:32:42;;;;;;;9.87;7.73;;;25.40;51.10;;;;;;5119229;27;20472;-90
2022/07/22 01:35:09;;;;;;;7.27;6.57;;;25.30;50.70;;;;;;5112678;27;20463;-89
2022/07/22 01:37:38;;;;;;;14.57;7.50;;;25.40;51.40;;;;;;5132112;27;20459;-89
2022/07/22 01:40:06;;;;;;;7.37;6.60;;;25.30;51.40;;;;;;5130787;27;20451;-89
2022/07/22 01:42:33;;;;;;;7.83;6.77;;;25.30;51.50;;;;;;5147221;27;20465;-90
2022/07/22 01:45:00;;;;;;;8.03;7.10;;;25.30;51.60;;;;;;5128674;27;20459;-90
2022/07/22 01:47:28;;;;;;;9.37;7.33;;;25.30;52.00;;;;;;5141182;27;20453;-89
2022/07/22 01:49:55;;;;;;;8.03;6.87;;;25.20;51.80;;;;;;5102854;27;20448;-88
2022/07/22 01:52:22;;;;;;;9.37;7.30;;;25.20;51.60;;;;;;5109054;27;20544;-89
2022/07/22 01:54:50;;;;;;;9.03;7.60;;;25.10;52.40;;;;;;5092856;27;20501;-90
2022/07/22 01:57:17;;;;;;;7.83;6.97;;;25.10;52.80;;;;;;5108882;27;20999;-90
2022/07/22 01:59:48;;;;;;;8.67;7.17;;;25.00;52.90;;;;;;5128357;27;20455;-90
2022/07/22 02:02:16;;;;;;;8.43;7.13;;;25.00;53.10;;;;;;5111665;27;20469;-90
2022/07/22 02:04:43;;;;;;;8.43;7.63;;;25.00;53.20;;;;;;5109409;27;20452;-89
2022/07/22 02:07:11;;;;;;;9.80;7.67;;;25.00;53.20;;;;;;5123884;27;20453;-90
2022/07/22 02:09:38;;;;;;;8.53;7.60;;;25.00;53.20;;;;;;5094498;27;20575;-88
2022/07/22 02:12:08;;;;;;;10.10;7.67;;;25.00;53.20;;;;;;5122742;27;21062;-89
2022/07/22 02:14:41;;;;;;;9.70;7.47;;;24.90;53.50;;;;;;5093514;27;20457;-89
2022/07/22 02:17:08;;;;;;;8.53;7.60;;;24.70;54.40;;;;;;5110014;27;20449;-89
2022/07/22 02:25:46;;;;;;;9.03;6.47;;;24.80;53.90;;;;;;5141852;27;20512;-88
2022/07/22 02:28:14;;;;;;;10.53;7.93;;;24.80;53.50;;;;;;5127216;27;20453;-90
2022/07/22 02:30:41;;;;;;;10.40;8.37;;;24.70;53.30;;;;;;5098025;27;20442;-90
2022/07/22 02:33:08;;;;;;;11.17;7.03;;;24.70;53.80;;;;;;5111499;27;20476;-90
2022/07/22 02:35:35;;;;;;;9.30;8.30;;;24.70;53.60;;;;;;5101866;27;20483;-89
2022/07/22 02:38:04;;;;;;;9.90;7.20;;;24.70;53.40;;;;;;5108332;27;20940;-91
2022/07/22 02:40:32;;;;;;;8.60;7.67;;;24.60;53.30;;;;;;5113170;27;20489;-90
2022/07/22 02:42:59;;;;;;;10.60;8.63;;;24.60;53.40;;;;;;5096440;27;20563;-89
2022/07/22 02:45:27;;;;;;;9.53;7.43;;;24.50;53.60;;;;;;5109668;27;20963;-90
2022/07/22 02:47:56;;;;;;;12.43;7.93;;;24.50;53.50;;;;;;5102752;27;20446;-90
2022/07/22 02:50:24;;;;;;;9.20;7.40;;;24.50;53.40;;;;;;5111562;27;20529;-90
2022/07/22 02:52:52;;;;;;;8.70;7.80;;;24.50;53.90;;;;;;5091157;27;20465;-90
2022/07/22 02:55:20;;;;;;;16.47;8.73;;;24.50;53.60;;;;;;5093457;27;20569;-88
2022/07/22 03:10:33;;;;;;;9.80;8.80;;;24.30;54.10;;;;;;5144856;27;21020;-90
2022/07/22 03:13:00;;;;;;;10.07;8.30;;;24.30;54.40;;;;;;5103096;27;20958;-90
2022/07/22 03:15:27;;;;;;;12.13;8.60;;;24.30;54.60;;;;;;5099721;27;20453;-90
2022/07/22 03:21:37;;;;;;;10.53;8.40;;;24.30;54.40;;;;;;5145605;27;20468;-91
2022/07/22 03:26:56;;;;;;;8.70;7.80;;;24.10;54.70;;;;;;5104526;27;20430;-90
2022/07/22 03:29:22;;;;;;;11.90;8.40;;;24.10;53.90;;;;;;5130472;27;20525;-90
2022/07/22 03:31:49;;;;;;;10.43;7.63;;;24.10;52.60;;;;;;5130035;27;20477;-90
2022/07/22 03:34:25;;;;;;;10.17;7.70;;;23.90;53.90;;;;;;5126502;27;20451;-89
2022/07/22 03:36:59;;;;;;;11.83;7.90;;;24.00;53.90;;;;;;5129983;27;20445;-91
2022/07/22 03:39:26;;;;;;;9.53;8.10;;;23.90;52.40;;;;;;5090411;27;21150;-90
2022/07/22 03:41:53;;;;;;;10.53;9.10;;;23.90;53.40;;;;;;5096814;27;20543;-90
2022/07/22 03:44:20;;;;;;;13.30;8.50;;;23.80;54.20;;;;;;5127811;27;20487;-90
2022/07/22 03:46:47;;;;;;;7.57;6.87;;;23.80;54.20;;;;;;5132049;27;20448;-90
2022/07/22 03:49:15;;;;;;;9.73;7.77;;;23.90;53.80;;;;;;5105736;27;20506;-89
2022/07/22 03:51:44;;;;;;;9.13;7.53;;;23.90;53.10;;;;;;5112963;27;20472;-90
2022/07/22 03:54:11;;;;;;;8.80;7.80;;;23.80;53.10;;;;;;5114176;27;20541;-89
2022/07/22 03:56:41;;;;;;;11.30;8.27;;;23.80;53.90;;;;;;5128170;27;20449;-89
2022/07/22 03:59:09;;;;;;;9.33;8.00;;;23.90;54.00;;;;;;5126052;27;20631;-89
2022/07/22 04:01:36;;;;;;;15.20;9.00;;;23.90;53.90;;;;;;5114607;27;20543;-89
2022/07/22 04:04:03;;;;;;;8.30;7.30;;;23.90;54.10;;;;;;5111549;27;20485;-90
2022/07/22 04:06:33;;;;;;;14.57;8.77;;;23.70;54.60;;;;;;5131430;27;20548;-89
2022/07/22 04:09:09;;;;;;;10.50;8.53;;;23.40;54.90;;;;;;5128954;27;20448;-88
2022/07/22 04:11:36;;;;;;;10.40;8.70;;;23.50;54.60;;;;;;5111205;27;21075;-89
2022/07/22 04:14:03;;;;;;;10.00;8.10;;;23.40;55.30;;;;;;5112786;27;20575;-89
2022/07/22 04:16:30;;;;;;;9.00;7.60;;;23.50;55.30;;;;;;5131043;27;20438;-88
2022/07/22 04:19:06;;;;;;;9.83;8.60;;;23.40;55.60;;;;;;5127254;27;20489;-89
2022/07/22 04:21:54;;;;;;;9.87;7.97;;;23.50;55.30;;;;;;5102166;27;20464;-88
2022/07/22 04:24:25;;;;;;;8.67;7.13;;;23.60;54.80;;;;;;5109369;27;20449;-88
2022/07/22 04:26:52;;;;;;;9.00;8.10;;;23.70;55.20;;;;;;5112673;27;20540;-90
2022/07/22 04:33:26;;;;;;;9.50;8.17;;;23.70;55.00;;;;;;5137375;27;20429;-90
2022/07/22 04:35:53;;;;;;;10.57;8.03;;;23.80;55.20;;;;;;5110365;27;20448;-90
2022/07/22 04:38:20;;;;;;;8.80;7.77;;;23.80;55.40;;;;;;5105717;27;20986;-88
2022/07/22 04:41:48;;;;;;;10.37;8.20;;;23.90;55.30;;;;;;5117368;27;20543;-89
2022/07/22 04:44:44;;;;;;;12.87;7.70;;;23.90;55.50;;;;;;5119276;27;21003;-90
2022/07/22 04:47:11;;;;;;;9.73;8.70;;;23.90;55.30;;;;;;5126694;27;20434;-89
2022/07/22 04:49:39;;;;;;;11.13;7.83;;;23.90;55.30;;;;;;5127970;27;20451;-89
2022/07/22 04:52:09;;;;;;;13.50;8.60;;;23.90;55.30;;;;;;5110547;27;20525;-87
2022/07/22 04:54:42;;;;;;;12.93;7.23;;;24.00;55.60;;;;;;5123856;27;20568;-89
2022/07/22 04:57:09;;;;;;;10.70;8.07;;;24.10;55.40;;;;;;5082273;27;20525;-89
2022/07/22 04:59:36;;;;;;;10.90;8.37;;;24.10;55.10;;;;;;5105277;27;20926;-89
2022/07/22 05:02:04;;;;;;;10.50;8.40;;;24.10;55.20;;;;;;5118884;27;20669;-89
2022/07/22 05:04:32;;;;;;;13.70;8.70;;;24.20;55.30;;;;;;5126891;27;20445;-89
2022/07/22 05:06:59;;;;;;;12.10;8.23;;;24.10;54.70;;;;;;5112126;27;20489;-88
2022/07/22 05:09:26;;;;;;;9.17;7.90;;;24.20;54.30;;;;;;5135577;27;20635;-89
2022/07/22 05:11:52;;;;;;;8.40;7.50;;;24.30;54.80;;;;;;5130708;27;20518;-90
2022/07/22 05:14:22;;;;;;;8.90;7.80;;;24.20;54.90;;;;;;5110063;27;20467;-90
2022/07/22 05:16:49;;;;;;;8.97;7.87;;;24.20;54.80;;;;;;5113930;27;20453;-89
2022/07/22 05:19:17;;;;;;;11.40;7.90;;;24.30;54.80;;;;;;5143998;27;21285;-89
2022/07/22 05:25:52;;;;;;;9.83;7.83;;;24.30;54.40;;;;;;5130020;27;20899;-89
2022/07/22 05:28:20;;;;;;;11.47;8.77;;;24.30;54.90;;;;;;5086834;27;20451;-89
2022/07/22 05:30:48;;;;;;;10.77;8.20;;;24.30;54.40;;;;;;5128619;27;20444;-89
2022/07/22 05:33:16;;;;;;;8.47;6.87;;;24.40;54.50;;;;;;5088144;27;20492;-89
2022/07/22 05:36:05;;;;;;;8.17;6.87;;;24.40;54.60;;;;;;5100010;27;20453;-89
2022/07/22 05:38:38;;;;;;;9.53;8.03;;;24.50;54.50;;;;;;5109348;27;20472;-89
2022/07/22 05:41:57;;;;;;;10.90;8.00;;;24.60;54.30;;;;;;5129490;27;20451;-89
2022/07/22 05:44:49;;;;;;;7.10;6.43;;;24.60;54.50;;;;;;5105230;27;20558;-88
2022/07/22 05:47:16;;;;;;;9.20;7.00;;;24.50;54.40;;;;;;5126512;27;20456;-88
2022/07/22 05:49:43;;;;;;;8.60;7.03;;;24.40;54.20;;;;;;5123775;27;20441;-88
2022/07/22 05:52:11;;;;;;;8.13;7.00;;;24.30;54.60;;;;;;5107781;27;20484;-89
2022/07/22 05:54:39;;;;;;;8.10;6.80;;;24.30;54.70;;;;;;5125594;27;20464;-89
2022/07/22 05:57:57;;;;;;;7.93;7.13;;;24.30;54.50;;;;;;5128718;27;20456;-89
2022/07/22 06:00:49;;;;;;;7.67;6.60;;;24.40;54.20;;;;;;5125403;27;20441;-89
2022/07/22 06:03:16;;;;;;;7.60;6.80;;;24.50;54.30;;;;;;5122302;27;20472;-89
2022/07/22 06:05:43;;;;;;;6.53;5.80;;;24.60;53.90;;;;;;5107339;27;20494;-89
2022/07/22 06:08:13;;;;;;;7.60;6.80;;;24.60;53.80;;;;;;5125305;27;20935;-88
2022/07/22 06:10:46;;;;;;;9.30;6.93;;;24.50;53.30;;;;;;5094464;27;20448;-87
2022/07/22 06:13:14;;;;;;;10.00;6.43;;;24.20;53.80;;;;;;5093146;27;20536;-88
2022/07/22 06:19:51;;;;;;;7.60;6.83;;;24.10;54.50;;;;;;5126437;27;20460;-88
2022/07/22 06:22:18;;;;;;;8.30;7.30;;;24.20;54.10;;;;;;5141455;27;20522;-88
2022/07/22 06:24:47;;;;;;;7.17;6.47;;;24.30;54.00;;;;;;5124132;27;20437;-90
2022/07/22 06:27:15;;;;;;;8.50;7.23;;;24.50;53.80;;;;;;5125317;27;20524;-86
2022/07/22 06:29:42;;;;;;;8.00;7.03;;;24.30;53.70;;;;;;5084620;27;20445;-88
2022/07/22 06:32:34;;;;;;;7.53;6.73;;;24.40;54.40;;;;;;5112887;27;20473;-87
2022/07/22 06:35:03;;;;;;;8.70;7.00;;;24.50;53.80;;;;;;5089051;27;21101;-89
2022/07/22 06:37:30;;;;;;;8.20;6.70;;;24.70;53.60;;;;;;5109255;27;21194;-88
2022/07/22 06:39:58;;;;;;;9.87;6.30;;;24.80;53.00;;;;;;5106862;27;20541;-88
2022/07/22 06:42:59;;;;;;;8.10;6.83;;;24.50;52.90;;;;;;5108959;27;20460;-87
2022/07/22 06:45:47;;;;;;;6.70;6.10;;;24.60;53.70;;;;;;5112984;27;20448;-88
2022/07/22 06:48:21;;;;;;;8.03;6.43;;;24.90;53.40;;;;;;5124087;27;20469;-87
2022/07/22 06:50:48;;;;;;;7.67;6.13;;;24.70;53.10;;;;;;5120257;27;20460;-87
2022/07/22 06:53:17;;;;;;;7.03;6.20;;;24.60;53.20;;;;;;5130720;27;20719;-87
2022/07/22 06:55:46;;;;;;;8.50;6.80;;;24.70;53.20;;;;;;5108469;27;20460;-88
2022/07/22 06:58:14;;;;;;;8.60;6.73;;;24.80;53.30;;;;;;5123859;27;20799;-89
2022/07/22 07:00:41;;;;;;;8.13;6.87;;;24.90;52.90;;;;;;5122136;27;20469;-89
2022/07/22 07:03:28;;;;;;;9.87;6.60;;;24.80;52.60;;;;;;5120113;27;21220;-88
2022/07/22 07:05:59;;;;;;;9.60;6.53;;;24.80;52.80;;;;;;5120442;27;20782;-89
2022/07/22 07:08:28;;;;;;;9.93;7.43;;;24.80;53.00;;;;;;5103805;27;20943;-88
2022/07/22 07:10:56;;;;;;;7.40;6.20;;;25.00;53.00;;;;;;5090931;27;20451;-88
2022/07/22 07:13:23;;;;;;;7.07;6.30;;;25.00;52.80;;;;;;5104979;27;20830;-87
2022/07/22 07:19:58;;;;;;;8.40;7.50;;;25.30;51.80;;;;;;5107319;27;20440;-87
2022/07/22 07:22:25;;;;;;;6.50;5.90;;;25.40;52.10;;;;;;5119044;27;20469;-87
2022/07/22 07:24:52;;;;;;;7.37;6.67;;;25.50;52.00;;;;;;5125428;27;20457;-89
2022/07/22 07:27:20;;;;;;;7.40;6.40;;;25.60;51.30;;;;;;5109868;27;20465;-87
2022/07/22 07:29:51;;;;;;;6.90;6.20;;;25.90;51.50;;;;;;5108101;27;20848;-87
2022/07/22 07:32:18;;;;;;;7.20;6.50;;;25.90;50.80;;;;;;5102339;27;20533;-86
2022/07/22 07:34:45;;;;;;;7.10;5.60;;;26.10;50.40;;;;;;5112967;27;20955;-87
2022/07/22 07:37:12;;;;;;;9.43;6.80;;;25.90;50.50;;;;;;5124577;27;20440;-87
2022/07/22 07:39:39;;;;;;;8.30;6.57;;;25.80;51.00;;;;;;5116228;27;20458;-88
2022/07/22 07:42:35;;;;;;;9.33;7.97;;;25.70;51.20;;;;;;5126661;27;20525;-88
2022/07/22 07:45:02;;;;;;;8.87;5.93;;;25.70;51.20;;;;;;5125007;27;20445;-88
2022/07/22 07:47:29;;;;;;;7.20;5.87;;;25.60;51.50;;;;;;5090122;27;20494;-88
2022/07/22 07:49:57;;;;;;;7.33;6.17;;;25.60;51.20;;;;;;5120823;27;20488;-89
2022/07/22 07:52:24;;;;;;;7.97;6.47;;;26.00;50.70;;;;;;5100221;27;20567;-88
2022/07/22 07:54:52;;;;;;;7.20;6.00;;;26.10;50.00;;;;;;5101235;27;20469;-87
2022/07/22 08:04:44;;;;;;;10.97;6.30;;;25.70;51.00;;;;;;5124556;27;20440;-88
2022/07/22 08:07:16;;;;;;;7.00;6.30;;;25.50;51.70;;;;;;5122296;27;20500;-90
2022/07/22 08:09:44;;;;;;;7.00;5.70;;;25.20;51.90;;;;;;5089541;27;20441;-88
2022/07/22 08:12:20;;;;;;;8.37;6.27;;;25.20;53.00;;;;;;5107700;27;20484;-88
2022/07/22 08:15:17;;;;;;;7.97;6.80;;;25.60;51.70;;;;;;5104438;27;20477;-88
2022/07/22 08:20:43;;;;;;;6.60;6.00;;;26.30;50.70;;;;;;5104378;27;20436;-88
2022/07/22 08:23:12;;;;;;;6.97;6.30;;;26.40;49.70;;;;;;5122442;27;20593;-89
2022/07/22 08:25:42;;;;;;;6.17;5.57;;;26.30;50.40;;;;;;5107243;27;20441;-88
2022/07/22 08:31:00;;;;;;;7.43;5.60;;;27.00;49.10;;;;;;5101790;27;20449;-90
2022/07/22 08:33:31;;;;;;;8.87;6.40;;;27.10;48.40;;;;;;5143140;27;20439;-88
2022/07/22 08:35:59;;;;;;;9.03;6.07;;;26.80;48.80;;;;;;5110301;27;20465;-88
2022/07/22 08:38:26;;;;;;;6.20;5.70;;;27.00;48.60;;;;;;5078374;27;20443;-87
2022/07/22 08:40:55;;;;;;;6.40;5.80;;;27.40;47.60;;;;;;5097306;27;20986;-87
2022/07/22 08:43:22;;;;;;;8.60;6.10;;;27.50;47.50;;;;;;5110045;27;20441;-88
2022/07/22 08:45:50;;;;;;;6.10;5.50;;;27.60;47.40;;;;;;5121110;27;20996;-88
2022/07/22 08:48:17;;;;;;;6.97;5.80;;;27.90;46.70;;;;;;5122650;27;20557;-88
2022/07/22 08:50:56;;;;;;;8.10;5.90;;;27.90;46.40;;;;;;5141731;27;20480;-88
2022/07/22 08:53:31;;;;;;;7.03;6.17;;;27.80;46.20;;;;;;5122033;27;20807;-88
2022/07/22 08:56:04;;;;;;;7.57;5.93;;;27.90;45.90;;;;;;5123020;27;20964;-88
2022/07/22 08:58:56;;;;;;;6.13;5.53;;;27.80;46.10;;;;;;5126811;27;20612;-88
2022/07/22 09:01:23;;;;;;;7.47;5.93;;;27.70;46.80;;;;;;5111783;27;20468;-87
2022/07/22 09:03:55;;;;;;;6.33;5.60;;;28.00;47.10;;;;;;5109334;27;21501;-88
2022/07/22 09:06:32;;;;;;;8.90;5.83;;;28.20;46.20;;;;;;5109067;27;20476;-89
2022/07/22 09:09:02;;;;;;;9.53;5.83;;;28.30;45.70;;;;;;5107918;27;20528;-88
2022/07/22 09:11:50;;;;;;;6.00;5.40;;;28.60;45.20;;;;;;5120533;27;20536;-90
2022/07/22 09:14:46;;;;;;;8.20;5.70;;;28.80;44.90;;;;;;5076555;27;20441;-89
2022/07/22 09:17:35;;;;;;;6.83;6.07;;;28.80;44.70;;;;;;5096029;27;20448;-87
2022/07/22 09:20:21;;;;;;;7.60;6.10;;;29.00;44.50;;;;;;5120828;27;20448;-88
2022/07/22 09:23:11;;;;;;;7.37;5.47;;;29.00;44.60;;;;;;5143782;27;20460;-88
2022/07/22 09:25:42;;;;;;;7.10;5.70;;;29.10;44.60;;;;;;5121424;27;20477;-88
2022/07/22 09:28:28;;;;;;;5.90;5.40;;;28.90;44.20;;;;;;5121557;27;20598;-88
2022/07/22 09:31:26;;;;;;;6.43;5.80;;;28.70;44.30;;;;;;5143170;27;20548;-86
2022/07/22 09:36:55;;;;;;;10.10;6.40;;;29.10;43.90;;;;;;5098275;27;20661;-88
2022/07/22 09:39:26;;;;;;;5.93;5.43;;;29.60;42.70;;;;;;5108517;27;20536;-88
2022/07/22 09:44:55;;;;;;;7.60;6.20;;;30.00;42.30;;;;;;5122879;27;20491;-89
2022/07/22 09:48:18;;;;;;;9.60;6.80;;;30.20;42.30;;;;;;5106702;27;20460;-88
2022/07/22 09:50:57;;;;;;;7.57;5.93;;;30.50;41.10;;;;;;5106773;27;20444;-86
2022/07/22 09:53:34;;;;;;;8.07;6.37;;;30.60;40.80;;;;;;5108235;27;20452;-87
2022/07/22 09:56:31;;;;;;;7.10;6.20;;;30.70;40.20;;;;;;5120754;27;20480;-87
2022/07/22 09:58:59;;;;;;;7.20;5.53;;;30.80;40.50;;;;;;5125856;27;20626;-88
2022/07/22 10:02:25;;;;;;;8.10;6.37;;;31.00;40.30;;;;;;5129893;27;20991;-88
2022/07/22 10:04:53;;;;;;;7.73;5.83;;;31.30;39.50;;;;;;5122765;27;20465;-88
2022/07/22 10:10:40;;;;;;;6.30;5.70;;;31.80;38.20;;;;;;5134176;27;20440;-88
2022/07/22 10:13:09;;;;;;;8.93;5.90;;;32.10;38.80;;;;;;5107289;27;20461;-89
2022/07/22 10:15:38;;;;;;;6.53;5.50;;;32.30;37.10;;;;;;5107303;27;20472;-88
2022/07/22 10:18:31;;;;;;;6.20;5.47;;;32.20;36.70;;;;;;5110233;27;20437;-88
2022/07/22 10:21:05;;;;;;;7.87;6.10;;;32.30;36.70;;;;;;5123755;27;20959;-88
2022/07/22 10:23:32;;;;;;;6.47;5.87;;;32.50;36.80;;;;;;5108212;27;20509;-88
2022/07/22 10:26:00;;;;;;;6.07;5.57;;;32.50;35.60;;;;;;5124866;27;20425;-86
2022/07/22 10:28:41;;;;;;;6.50;5.90;;;32.60;36.10;;;;;;5103712;27;20457;-88
2022/07/22 10:31:21;;;;;;;8.83;5.97;;;32.80;35.50;;;;;;5139506;27;20436;-88
2022/07/22 10:36:43;;;;;;;7.07;6.37;;;32.50;34.30;;;;;;5123663;27;20461;-88
2022/07/22 10:39:13;;;;;;;6.53;5.93;;;32.20;34.80;;;;;;5112429;27;20440;-88
2022/07/22 10:42:30;;;;;;;6.87;5.77;;;32.20;35.30;;;;;;5139613;27;20564;-88
2022/07/22 10:48:49;;;;;;;12.70;6.47;;;32.30;35.60;;;;;;5098623;27;20427;-88
2022/07/22 10:51:17;;;;;;;8.17;5.70;;;32.80;34.70;;;;;;5138577;27;20800;-89
2022/07/22 10:54:14;;;;;;;7.93;5.83;;;33.20;34.30;;;;;;5105031;27;20436;-88
2022/07/22 10:56:43;;;;;;;5.73;5.23;;;33.20;32.70;;;;;;5119734;27;20476;-89
2022/07/22 10:59:11;;;;;;;6.30;5.40;;;33.50;33.80;;;;;;5110566;27;20488;-88
2022/07/22 11:01:39;;;;;;;6.23;5.63;;;33.60;31.90;;;;;;5039302;27;20465;-89
2022/07/22 11:04:14;;;;;;;6.60;5.40;;;33.50;31.80;;;;;;5107872;27;20456;-90
2022/07/22 11:06:42;;;;;;;6.67;5.97;;;33.40;31.00;;;;;;5124048;27;20437;-88
2022/07/22 11:09:11;;;;;;;5.20;4.80;;;33.40;31.30;;;;;;5139768;27;20447;-88
2022/07/22 11:11:41;;;;;;;13.00;6.27;;;33.10;30.70;;;;;;5142540;27;20479;-89
2022/07/22 11:14:16;;;;;;;5.80;5.17;;;33.30;31.40;;;;;;5096769;27;20802;-89
2022/07/22 11:20:50;;;;;;;7.07;5.30;;;33.50;29.60;;;;;;5135682;27;20496;-88
2022/07/22 11:23:17;;;;;;;11.10;6.10;;;33.30;30.10;;;;;;5119082;27;20473;-87
2022/07/22 11:25:44;;;;;;;8.10;5.90;;;33.40;29.70;;;;;;5123498;27;20904;-88
2022/07/22 11:28:12;;;;;;;7.10;5.43;;;33.30;29.90;;;;;;5121018;27;20501;-88
2022/07/22 11:31:29;;;;;;;6.70;5.73;;;33.40;30.30;;;;;;5124333;27;21913;-89
2022/07/22 11:34:47;;;;;;;6.90;5.83;;;33.60;31.10;;;;;;5095441;27;20437;-88
2022/07/22 11:37:17;;;;;;;6.30;5.43;;;34.20;30.30;;;;;;5123734;27;20469;-88
2022/07/22 11:39:44;;;;;;;7.40;5.70;;;34.40;29.60;;;;;;5144963;27;21159;-89
2022/07/22 11:42:37;;;;;;;6.60;5.70;;;34.40;29.40;;;;;;5141278;27;20472;-90
2022/07/22 11:45:05;;;;;;;5.87;5.33;;;34.10;29.20;;;;;;5128351;27;20461;-89
2022/07/22 11:47:32;;;;;;;9.70;6.03;;;33.80;29.50;;;;;;5147159;27;20445;-88
2022/07/22 11:50:31;;;;;;;8.20;6.07;;;34.00;30.30;;;;;;5130367;27;20445;-88
2022/07/22 11:53:02;;;;;;;8.60;5.40;;;34.20;29.90;;;;;;5143148;27;20472;-88
2022/07/22 11:55:29;;;;;;;6.17;5.57;;;34.40;29.30;;;;;;5138673;27;21137;-88
2022/07/22 11:57:56;;;;;;;7.20;6.00;;;34.60;29.30;;;;;;5126685;27;21319;-88
2022/07/22 12:04:57;;;;;;;9.10;6.40;;;34.40;28.70;;;;;;5125981;27;20947;-89
2022/07/22 12:07:24;;;;;;;6.50;5.93;;;34.50;29.30;;;;;;5128692;27;20440;-90
2022/07/22 12:09:52;;;;;;;6.43;5.80;;;34.60;29.10;;;;;;5148361;27;20460;-88
2022/07/22 12:12:19;;;;;;;5.63;5.13;;;34.60;29.40;;;;;;5129259;27;20975;-87
2022/07/22 12:14:48;;;;;;;6.10;5.57;;;34.80;29.00;;;;;;5146034;27;20456;-89
2022/07/22 12:20:31;;;;;;;8.10;6.07;;;35.00;28.40;;;;;;5107889;27;20453;-88
2022/07/22 12:22:59;;;;;;;8.47;5.83;;;35.10;28.90;;;;;;5146429;27;20461;-88
2022/07/22 12:25:28;;;;;;;6.80;5.70;;;35.10;28.40;;;;;;5134423;27;21841;-88
2022/07/22 12:28:02;;;;;;;6.90;5.27;;;35.20;28.90;;;;;;5138347;27;20456;-90
2022/07/22 12:30:29;;;;;;;6.10;5.60;;;34.60;28.30;;;;;;5143807;27;20948;-89
2022/07/22 12:32:59;;;;;;;7.27;6.23;;;34.60;28.90;;;;;;5148129;27;20468;-89
2022/07/22 12:35:27;;;;;;;6.50;5.90;;;34.70;29.20;;;;;;5126865;27;20452;-90
2022/07/22 12:37:54;;;;;;;6.00;5.33;;;35.10;29.10;;;;;;5126094;27;20461;-90
2022/07/22 12:40:22;;;;;;;6.60;6.10;;;35.30;28.90;;;;;;5123869;27;20460;-90
2022/07/22 12:43:03;;;;;;;5.60;5.13;;;35.50;29.00;;;;;;5117144;27;20472;-92
2022/07/22 12:45:32;;;;;;;6.43;5.90;;;35.80;29.20;;;;;;5142236;27;20445;-90
2022/07/22 12:48:08;;;;;;;6.47;5.83;;;36.00;28.30;;;;;;5144181;27;20448;-91
2022/07/22 12:50:36;;;;;;;6.50;5.90;;;35.80;27.90;;;;;;5140033;27;20449;-88
2022/07/22 12:53:05;;;;;;;5.43;5.03;;;35.50;28.00;;;;;;5147252;27;20818;-90
2022/07/22 12:55:34;;;;;;;9.57;6.23;;;35.40;28.00;;;;;;5136971;27;20499;-89
2022/07/22 12:58:04;;;;;;;6.17;5.57;;;35.10;28.90;;;;;;5123255;27;20457;-89
2022/07/22 13:00:33;;;;;;;6.10;5.60;;;35.50;28.70;;;;;;5133475;27;20447;-88
2022/07/22 13:03:00;;;;;;;6.83;6.13;;;35.60;28.00;;;;;;5123133;27;20477;-88
2022/07/22 13:05:28;;;;;;;5.73;5.23;;;35.60;28.20;;;;;;5131719;27;20484;-87
2022/07/22 13:07:55;;;;;;;6.73;6.13;;;35.40;28.00;;;;;;5137880;27;20457;-88
2022/07/22 13:10:23;;;;;;;6.37;5.70;;;35.50;28.40;;;;;;5136775;27;20445;-90
2022/07/22 13:16:10;;;;;;;6.23;5.67;;;35.10;28.20;;;;;;5141192;27;20449;-88
2022/07/22 13:18:37;;;;;;;6.00;5.50;;;35.20;29.10;;;;;;5138216;27;21040;-88
2022/07/22 13:21:04;;;;;;;6.57;5.90;;;35.30;28.90;;;;;;5122516;27;20437;-89
2022/07/22 13:23:32;;;;;;;6.20;5.60;;;35.60;28.60;;;;;;5105489;27;20445;-88
2022/07/22 13:25:59;;;;;;;7.47;6.33;;;35.70;28.40;;;;;;5142357;27;20452;-89
2022/07/22 13:28:26;;;;;;;6.17;5.67;;;35.90;27.80;;;;;;5120223;27;20452;-87
2022/07/22 13:30:53;;;;;;;9.50;6.43;;;35.90;27.80;;;;;;5143322;27;20453;-90
2022/07/22 13:33:21;;;;;;;6.50;5.57;;;35.80;27.70;;;;;;5103475;27;20560;-88
2022/07/22 13:35:48;;;;;;;6.70;6.10;;;35.80;27.60;;;;;;5102497;27;20785;-88
2022/07/22 13:38:16;;;;;;;6.70;6.10;;;35.60;28.10;;;;;;5102698;27;20457;-88
2022/07/22 13:40:49;;;;;;;6.17;5.57;;;35.40;28.80;;;;;;5135344;27;20984;-90
2022/07/22 13:43:16;;;;;;;5.57;5.07;;;35.50;28.10;;;;;;5102583;27;20457;-88
2022/07/22 13:45:43;;;;;;;6.30;5.80;;;35.60;28.50;;;;;;5089146;27;20452;-88
2022/07/22 13:48:12;;;;;;;5.80;5.23;;;35.90;27.80;;;;;;5121920;27;20794;-90
2022/07/22 13:50:41;;;;;;;6.20;5.67;;;36.30;27.80;;;;;;5139406;27;20449;-88
2022/07/22 13:53:08;;;;;;;7.80;6.00;;;36.30;27.40;;;;;;5106542;27;20453;-88
2022/07/22 13:55:35;;;;;;;5.43;5.03;;;36.10;27.80;;;;;;5123154;27;20461;-89
2022/07/22 13:58:27;;;;;;;7.77;5.50;;;36.10;26.80;;;;;;5143556;27;20469;-89
2022/07/22 14:00:54;;;;;;;10.13;5.43;;;36.20;27.50;;;;;;5124874;27;20468;-89
2022/07/22 14:03:21;;;;;;;7.10;5.90;;;36.10;27.00;;;;;;5137341;27;20480;-88
2022/07/22 14:05:49;;;;;;;6.10;5.60;;;35.90;27.40;;;;;;5124635;27;20456;-88
2022/07/22 14:08:17;;;;;;;7.37;6.03;;;35.90;28.30;;;;;;5120186;27;20434;-88
2022/07/22 14:10:44;;;;;;;10.93;5.80;;;35.90;27.80;;;;;;5140905;27;20535;-88
2022/07/22 14:13:11;;;;;;;7.50;6.20;;;36.00;27.90;;;;;;5142297;27;20468;-88
2022/07/22 14:15:38;;;;;;;5.83;5.37;;;35.90;27.80;;;;;;5134583;27;20453;-89
2022/07/22 14:18:30;;;;;;;6.33;5.60;;;36.20;27.80;;;;;;5145252;27;20916;-89
2022/07/22 14:20:58;;;;;;;10.00;6.10;;;36.40;27.20;;;;;;5123999;27;20456;-89
2022/07/22 14:23:25;;;;;;;6.57;5.90;;;36.40;27.30;;;;;;5106647;27;20453;-89
2022/07/22 14:25:52;;;;;;;6.37;5.73;;;36.30;27.00;;;;;;5124273;27;21051;-89
2022/07/22 14:28:19;;;;;;;6.83;6.23;;;36.10;27.10;;;;;;5123470;27;21023;-90
2022/07/22 14:30:46;;;;;;;5.87;5.37;;;36.10;27.00;;;;;;5137372;27;20948;-89
2022/07/22 14:33:12;;;;;;;7.07;6.47;;;35.50;27.20;;;;;;5144032;27;20476;-89
2022/07/22 14:36:30;;;;;;;11.10;5.83;;;34.80;28.00;;;;;;5122556;27;20448;-89
2022/07/22 14:38:59;;;;;;;5.67;5.17;;;35.20;28.10;;;;;;5122223;27;20445;-89
2022/07/22 14:41:25;;;;;;;8.07;7.30;;;35.30;28.10;;;;;;5123337;27;20544;-89
2022/07/22 14:43:54;;;;;;;6.00;5.40;;;35.70;27.40;;;;;;5140743;27;20460;-88
2022/07/22 14:46:20;;;;;;;6.17;5.63;;;35.60;27.80;;;;;;5144233;27;20436;-88